.
WxDataArchive / Data Records for 2015-02-24
2015-02-23 February 2015 2015-02-25

Data Records for Tuesday, 24 February 2015

Time	Temp	Chill	HIndex	Humid	Dewpt	 Wind 	HiWind	WindDir	Rain 	Barom
-----	----	-----	------	-----	-----	------	------	-------	-----	-----
00:00	4.3	4.3	4.3	72	-2.7	0	0	---	0.00	30.387 
00:05	4.1	4.1	4.1	72	-2.9	0	1	292	0.00	30.387 
00:10	3.9	3.9	3.9	72	-3.1	0	0	---	0.00	30.387 
00:15	3.7	3.7	3.7	72	-3.3	0	0	---	0.00	30.375 
00:20	3.5	3.5	3.5	72	-3.5	0	1	292	0.00	30.375 
00:25	3.5	3.5	3.5	72	-3.5	0	0	---	0.00	30.375 
00:30	3.4	3.4	3.4	72	-3.6	0	1	292	0.00	30.374 
00:35	3.2	3.2	3.2	72	-3.8	0	1	292	0.00	30.374 
00:40	3.0	3.0	3.0	72	-3.9	0	1	292	0.00	30.374 
00:45	3.2	3.2	3.2	73	-3.5	0	1	292	0.00	30.370 
00:50	3.4	3.4	3.4	73	-3.3	0	1	292	0.00	30.370 
00:55	3.5	3.5	3.5	73	-3.2	0	1	292	0.00	30.370 
01:00	3.5	3.5	3.5	73	-3.2	0	1	292	0.00	30.357 
01:05	3.5	3.5	3.5	73	-3.2	0	1	292	0.00	30.357 
01:10	3.5	3.5	3.5	73	-3.2	0	1	292	0.00	30.357 
01:15	3.5	3.5	3.5	73	-3.2	0	1	292	0.00	30.352 
01:20	3.5	3.5	3.5	72	-3.5	0	0	---	0.00	30.352 
01:25	3.2	3.2	3.2	72	-3.8	0	1	292	0.00	30.352 
01:30	3.0	3.0	3.0	72	-3.9	0	1	292	0.00	30.343 
01:35	2.8	2.8	2.8	73	-3.9	0	1	292	0.00	30.343 
01:40	2.8	2.8	2.8	73	-3.9	0	1	292	0.00	30.343 
01:45	2.8	2.8	2.8	73	-3.9	0	0	---	0.00	30.340 
01:50	2.8	2.8	2.8	73	-3.9	0	1	292	0.00	30.340 
01:55	2.8	2.8	2.8	73	-3.9	0	0	---	0.00	30.340 
02:00	2.6	2.6	2.6	73	-4.0	0	0	---	0.00	30.328 
02:05	2.4	2.4	2.4	72	-4.5	0	0	---	0.00	30.328 
02:10	2.2	2.2	2.2	72	-4.7	0	0	---	0.00	30.328 
02:15	2.0	2.0	2.0	73	-4.6	0	0	---	0.00	30.314 
02:20	2.0	2.0	2.0	73	-4.6	0	0	---	0.00	30.314 
02:25	2.0	2.0	2.0	73	-4.6	0	0	---	0.00	30.314 
02:30	1.8	1.8	1.8	73	-4.8	0	1	292	0.00	30.302 
02:35	1.7	1.7	1.7	73	-4.9	0	0	---	0.00	30.302 
02:40	1.7	1.7	1.7	73	-4.9	0	0	---	0.00	30.302 
02:45	1.8	1.8	1.8	74	-4.5	0	0	---	0.00	30.300 
02:50	2.0	2.0	2.0	74	-4.3	0	1	292	0.00	30.300 
02:55	2.2	2.2	2.2	74	-4.2	0	1	292	0.00	30.300 
03:00	2.4	2.4	2.4	74	-4.0	0	1	292	0.00	30.298 
03:05	2.6	2.6	2.6	74	-3.8	0	2	292	0.00	30.298 
03:10	2.6	2.6	2.6	74	-3.8	0	0	---	0.00	30.298 
03:15	2.6	2.6	2.6	74	-3.8	0	1	292	0.00	30.292 
03:20	2.6	2.6	2.6	74	-3.8	0	0	---	0.00	30.292 
03:25	2.6	2.6	2.6	74	-3.8	0	1	292	0.00	30.292 
03:30	2.4	2.4	2.4	73	-4.2	0	0	---	0.00	30.288 
03:35	2.4	2.4	2.4	73	-4.2	0	0	---	0.00	30.288 
03:40	2.2	2.2	2.2	73	-4.4	0	0	---	0.00	30.288 
03:45	2.0	2.0	2.0	73	-4.6	0	0	---	0.00	30.279 
03:50	2.0	2.0	2.0	73	-4.6	0	1	292	0.00	30.279 
03:55	2.0	2.0	2.0	73	-4.6	0	0	---	0.00	30.279 
04:00	1.8	1.8	1.8	73	-4.8	0	0	---	0.00	30.264 
04:05	1.7	1.7	1.7	73	-4.9	0	1	292	0.00	30.264 
04:10	1.3	1.3	1.3	73	-5.3	0	0	---	0.00	30.264 
04:15	1.1	1.1	1.1	73	-5.5	0	1	292	0.00	30.258 
04:20	0.9	0.9	0.9	74	-5.4	0	1	292	0.00	30.258 
04:25	0.9	0.9	0.9	74	-5.4	0	0	---	0.00	30.258 
04:30	0.9	0.9	0.9	74	-5.4	0	1	292	0.00	30.247 
04:35	0.7	0.7	0.7	74	-5.6	0	1	292	0.00	30.247 
04:40	0.7	0.7	0.7	74	-5.6	0	1	292	0.00	30.247 
04:45	0.7	0.7	0.7	74	-5.6	0	0	---	0.00	30.245 
04:50	0.7	0.7	0.7	74	-5.6	0	1	292	0.00	30.245 
04:55	0.5	0.5	0.5	74	-5.8	0	0	---	0.00	30.245 
05:00	0.3	0.3	0.3	74	-6.0	0	1	292	0.00	30.237 
05:05	0.3	0.3	0.3	74	-6.0	0	1	292	0.00	30.237 
05:10	0.3	0.3	0.3	74	-6.0	0	1	292	0.00	30.237 
05:15	0.3	0.3	0.3	74	-6.0	0	0	---	0.00	30.218 
05:20	0.1	0.1	0.1	74	-6.2	0	1	292	0.00	30.218 
05:25	0.3	0.3	0.3	75	-5.7	0	1	292	0.00	30.218 
05:30	0.3	0.3	0.3	75	-5.7	0	1	292	0.00	30.212 
05:35	0.1	0.1	0.1	74	-6.2	0	0	---	0.00	30.212 
05:40	0.0	0.0	0.0	74	-6.3	0	1	292	0.00	30.212 
05:45	-0.2	-0.2	-0.2	74	-6.5	0	0	---	0.00	30.199 
05:50	-0.2	-0.2	-0.2	74	-6.5	0	1	292	0.00	30.199 
05:55	-0.4	-0.4	-0.4	74	-6.7	0	0	---	0.00	30.199 
06:00	-0.4	-0.4	-0.4	75	-6.4	0	0	---	0.00	30.186 
06:05	-0.6	-0.6	-0.6	75	-6.6	0	1	292	0.00	30.186 
06:10	-0.6	-0.6	-0.6	75	-6.6	0	1	292	0.00	30.186 
06:15	-0.6	-0.6	-0.6	75	-6.6	0	1	292	0.00	30.177 
06:20	-0.6	-0.6	-0.6	75	-6.6	0	1	292	0.00	30.177 
06:25	-0.6	-0.6	-0.6	75	-6.6	0	1	292	0.00	30.177 
06:30	-0.4	-0.4	-0.4	75	-6.4	0	1	292	0.00	30.158 
06:35	-0.4	-0.4	-0.4	75	-6.4	0	1	292	0.00	30.158 
06:40	-0.4	-0.4	-0.4	75	-6.4	0	0	---	0.00	30.158 
06:45	-0.4	-0.4	-0.4	75	-6.4	0	1	292	0.00	30.147 
06:50	-0.2	-0.2	-0.2	75	-6.2	0	1	292	0.00	30.147 
06:55	0.0	0.0	0.0	75	-6.0	0	1	292	0.00	30.147 
07:00	0.1	0.1	0.1	75	-5.9	0	1	292	0.00	30.139 
07:05	0.3	0.3	0.3	75	-5.7	0	3	248	0.00	30.139 
07:10	0.7	0.7	0.7	75	-5.3	0	2	248	0.00	30.139 
07:15	0.9	0.9	0.9	74	-5.4	0	1	248	0.00	30.137 
07:20	1.1	1.1	1.1	73	-5.5	0	3	90	0.00	30.137 
07:25	1.3	1.3	1.3	73	-5.3	0	2	90	0.00	30.137 
07:30	1.3	1.3	1.3	73	-5.3	0	2	90	0.00	30.125 
07:35	1.5	1.5	1.5	72	-5.4	0	2	90	0.00	30.125 
07:40	1.8	1.8	1.8	72	-5.1	0	4	248	0.00	30.125 
07:45	2.0	2.0	2.0	71	-5.2	0	2	248	0.00	30.111 
07:50	2.2	2.2	2.2	71	-5.0	0	2	248	0.00	30.111 
07:55	2.6	2.6	2.6	70	-4.9	1	4	248	0.00	30.111 
08:00	3.0	3.0	3.0	69	-4.8	1	3	248	0.00	30.093 
08:05	3.2	3.2	3.2	68	-4.9	1	4	248	0.00	30.093 
08:10	3.5	3.5	3.5	68	-4.7	1	5	225	0.00	30.093 
08:15	3.9	3.9	3.9	67	-4.6	1	4	248	0.00	30.090 
08:20	4.3	4.3	4.3	67	-4.2	1	4	248	0.00	30.090 
08:25	4.7	4.7	4.7	66	-4.1	1	4	248	0.00	30.090 
08:30	5.0	5.0	5.0	65	-4.2	1	4	248	0.00	30.077 
08:35	5.2	5.2	5.2	65	-4.0	1	4	248	0.00	30.077 
08:40	5.6	5.6	5.6	65	-3.6	1	3	270	0.00	30.077 
08:45	6.1	6.1	6.1	64	-3.4	2	7	225	0.00	30.074 
08:50	6.5	6.5	6.5	63	-3.4	1	4	248	0.00	30.074 
08:55	7.0	7.0	7.0	63	-2.9	1	5	248	0.00	30.074 
09:00	7.2	7.2	7.2	62	-3.0	2	6	248	0.00	30.069 
09:05	7.2	7.2	7.2	61	-3.4	2	7	248	0.00	30.069 
09:10	7.6	7.6	7.6	61	-3.0	2	6	248	0.00	30.069 
09:15	7.9	7.9	7.9	61	-2.7	1	7	202	0.00	30.057 
09:20	8.3	8.3	8.3	61	-2.3	1	4	248	0.00	30.057 
09:25	8.6	8.6	8.6	60	-2.4	1	6	248	0.00	30.057 
09:30	8.8	8.8	8.8	60	-2.2	1	5	248	0.00	30.042 
09:35	9.0	9.0	9.0	59	-2.4	1	4	248	0.00	30.042 
09:40	9.3	9.3	9.3	59	-2.1	1	4	248	0.00	30.042 
09:45	9.7	9.7	9.7	58	-2.1	2	10	270	0.00	30.033 
09:50	9.9	9.9	9.9	58	-1.9	2	6	248	0.00	30.033 
09:55	9.9	9.9	9.9	58	-1.9	2	11	248	0.00	30.033 
10:00	10.0	10.0	10.0	58	-1.8	1	7	248	0.00	30.020 
10:05	10.0	10.0	10.0	58	-1.8	1	6	292	0.00	30.020 
10:10	10.0	10.0	10.0	58	-1.8	1	3	270	0.00	30.020 
10:15	10.2	10.2	10.2	57	-2.0	2	7	248	0.00	29.996 
10:20	10.9	10.9	10.9	58	-0.9	1	5	248	0.00	29.996 
10:25	11.6	11.6	11.6	57	-0.6	1	6	248	0.00	29.996 
10:30	11.7	11.7	11.7	55	-1.3	2	8	248	0.00	29.982 
10:35	11.7	11.7	11.7	55	-1.3	1	4	248	0.00	29.982 
10:40	12.3	12.3	12.3	54	-1.1	2	9	248	0.00	29.982 
10:45	12.6	12.6	12.6	52	-1.6	2	6	248	0.00	29.974 
10:50	12.9	12.9	12.9	50	-2.2	3	9	248	0.00	29.974 
10:55	12.9	12.9	12.9	50	-2.2	3	8	270	0.00	29.974 
11:00	13.1	13.1	13.1	51	-1.6	2	7	248	0.00	29.958 
11:05	13.1	13.1	13.1	49	-2.4	3	9	248	0.00	29.958 
11:10	13.3	13.3	13.3	51	-1.4	2	6	248	0.00	29.958 
11:15	13.3	13.3	13.3	51	-1.4	2	9	248	0.00	29.954 
11:20	13.5	13.5	13.5	51	-1.2	2	6	248	0.00	29.954 
11:25	14.1	14.1	14.1	51	-0.7	1	4	248	0.00	29.954 
11:30	14.8	14.8	14.8	50	-0.4	1	5	248	0.00	29.941 
11:35	14.8	14.8	14.8	49	-0.9	1	8	248	0.00	29.941 
11:40	14.9	14.9	14.9	48	-1.2	1	6	270	0.00	29.941 
11:45	14.9	14.9	14.9	47	-1.6	2	6	248	0.00	29.923 
11:50	14.9	14.9	14.9	47	-1.6	2	7	248	0.00	29.923 
11:55	15.2	15.2	15.2	47	-1.4	2	8	248	0.00	29.923 
12:00	15.4	15.4	15.4	46	-1.6	2	7	270	0.00	29.913 
12:05	15.9	15.9	15.9	45	-1.6	3	9	248	0.00	29.913 
12:10	16.4	16.4	16.4	45	-1.2	3	9	248	0.00	29.913 
12:15	17.0	17.0	17.0	46	-0.2	1	6	270	0.00	29.906 
12:20	17.2	17.2	17.2	46	0.0	2	6	248	0.00	29.906 
12:25	17.5	17.5	17.5	45	-0.2	2	9	248	0.00	29.906 
12:30	17.0	17.0	17.0	44	-1.1	3	11	248	0.00	29.903 
12:35	17.0	17.0	17.0	44	-1.1	3	10	248	0.00	29.903 
12:40	17.5	17.5	17.5	46	0.3	2	10	248	0.00	29.903 
12:45	17.8	17.8	17.8	45	0.1	3	10	248	0.00	29.889 
12:50	18.0	18.0	18.0	45	0.3	2	7	248	0.00	29.889 
12:55	18.1	18.1	18.1	46	0.8	3	7	248	0.00	29.889 
13:00	18.3	18.3	18.3	45	0.6	2	7	248	0.00	29.876 
13:05	18.3	12.3	18.3	45	0.6	4	11	248	0.00	29.876 
13:10	18.8	18.8	18.8	46	1.5	2	9	248	0.00	29.876 
13:15	19.2	19.2	19.2	45	1.4	2	10	248	0.00	29.860 
13:20	19.5	19.5	19.5	45	1.7	3	11	248	0.00	29.860 
13:25	19.9	19.9	19.9	45	2.0	2	6	248	0.00	29.860 
13:30	20.2	20.2	20.2	45	2.3	1	5	248	0.00	29.848 
13:35	20.3	20.3	20.3	44	1.9	2	6	270	0.00	29.848 
13:40	20.6	20.6	20.6	45	2.7	2	7	270	0.00	29.848 
13:45	21.1	21.1	21.1	44	2.6	1	6	248	0.00	29.834 
13:50	21.1	15.5	21.1	43	2.1	4	12	248	0.00	29.834 
13:55	21.1	21.1	21.1	43	2.1	3	9	248	0.00	29.834 
14:00	21.1	21.1	21.1	43	2.1	2	9	248	0.00	29.823 
14:05	21.0	21.0	21.0	43	2.1	3	8	248	0.00	29.823 
14:10	21.0	21.0	21.0	44	2.5	2	9	248	0.00	29.823 
14:15	21.0	21.0	21.0	44	2.5	2	9	248	0.00	29.811 
14:20	20.5	20.5	20.5	44	2.1	2	8	248	0.00	29.811 
14:25	20.5	20.5	20.5	45	2.6	2	7	248	0.00	29.811 
14:30	20.5	20.5	20.5	46	3.0	2	7	248	0.00	29.809 
14:35	20.5	20.5	20.5	47	3.5	2	9	248	0.00	29.809 
14:40	20.5	20.5	20.5	46	3.0	2	5	248	0.00	29.809 
14:45	20.5	20.5	20.5	46	3.0	2	7	248	0.00	29.796 
14:50	20.5	20.5	20.5	48	4.0	2	7	248	0.00	29.796 
14:55	20.3	20.3	20.3	48	3.8	3	8	248	0.00	29.796 
15:00	20.3	20.3	20.3	49	4.2	2	10	248	0.00	29.781 
15:05	20.2	20.2	20.2	50	4.6	2	6	248	0.00	29.781 
15:10	20.2	20.2	20.2	49	4.1	2	7	248	0.00	29.781 
15:15	20.2	20.2	20.2	50	4.6	2	7	248	0.00	29.769 
15:20	20.3	14.6	20.3	50	4.7	4	10	248	0.00	29.769 
15:25	20.3	20.3	20.3	50	4.7	2	9	248	0.00	29.769 
15:30	20.6	20.6	20.6	50	4.9	3	7	248	0.00	29.761 
15:35	21.0	21.0	21.0	51	5.7	2	7	248	0.00	29.761 
15:40	21.3	21.3	21.3	51	6.0	1	5	225	0.00	29.761 
15:45	21.8	21.8	21.8	51	6.5	1	6	248	0.00	29.767 
15:50	21.9	21.9	21.9	50	6.1	2	10	248	0.00	29.767 
15:55	22.1	22.1	22.1	49	5.9	3	9	248	0.00	29.767 
16:00	22.2	22.2	22.2	50	6.4	1	5	248	0.00	29.764 
16:05	22.1	16.6	22.1	49	5.9	4	9	248	0.00	29.764 
16:10	22.1	22.1	22.1	49	5.9	3	10	248	0.00	29.764 
16:15	22.1	22.1	22.1	49	5.9	3	10	248	0.00	29.768 
16:20	22.1	22.1	22.1	50	6.3	3	11	248	0.00	29.768 
16:25	22.2	22.2	22.2	50	6.4	2	9	248	0.00	29.768 
16:30	22.4	22.4	22.4	50	6.6	2	10	248	0.00	29.764 
16:35	22.4	22.4	22.4	50	6.6	2	6	248	0.00	29.764 
16:40	22.5	22.5	22.5	50	6.7	1	5	248	0.00	29.764 
16:45	22.9	22.9	22.9	51	7.5	1	4	248	0.00	29.769 
16:50	22.9	22.9	22.9	50	7.1	2	6	248	0.00	29.769 
16:55	22.9	22.9	22.9	50	7.1	2	6	248	0.00	29.769 
17:00	23.0	23.0	23.0	51	7.6	1	6	248	0.00	29.765 
17:05	23.0	23.0	23.0	51	7.6	1	7	248	0.00	29.765 
17:10	23.0	23.0	23.0	51	7.6	1	4	248	0.00	29.765 
17:15	23.2	23.2	23.2	51	7.8	1	5	248	0.00	29.762 
17:20	23.2	23.2	23.2	52	8.2	2	6	248	0.00	29.762 
17:25	23.2	17.9	23.2	52	8.2	4	9	248	0.00	29.762 
17:30	23.2	23.2	23.2	52	8.2	3	10	248	0.00	29.762 
17:35	23.2	17.9	23.2	53	8.6	4	10	248	0.00	29.762 
17:40	23.0	23.0	23.0	53	8.4	3	7	248	0.00	29.762 
17:45	23.0	23.0	23.0	54	8.9	3	11	248	0.00	29.770 
17:50	23.0	23.0	23.0	54	8.9	3	10	248	0.00	29.770 
17:55	23.0	23.0	23.0	55	9.3	3	6	248	0.00	29.770 
18:00	23.2	23.2	23.2	55	9.5	3	14	248	0.00	29.765 
18:05	23.2	23.2	23.2	56	9.9	3	14	248	0.00	29.765 
18:10	23.2	23.2	23.2	56	9.9	2	6	248	0.00	29.765 
18:15	23.2	23.2	23.2	57	10.3	3	11	248	0.00	29.767 
18:20	23.2	23.2	23.2	58	10.6	3	7	248	0.00	29.767 
18:25	23.2	17.9	23.2	58	10.6	4	11	248	0.00	29.767 
18:30	23.2	23.2	23.2	59	11.0	3	9	248	0.00	29.768 
18:35	23.0	23.0	23.0	59	10.8	2	6	248	0.00	29.768 
18:40	23.2	23.2	23.2	60	11.4	3	7	248	0.00	29.768 
18:45	23.2	23.2	23.2	61	11.8	2	9	248	0.00	29.768 
18:50	23.2	23.2	23.2	61	11.8	2	5	248	0.00	29.768 
18:55	23.2	23.2	23.2	62	12.1	2	9	248	0.00	29.768 
19:00	23.2	23.2	23.2	62	12.1	2	6	248	0.00	29.773 
19:05	23.2	23.2	23.2	63	12.5	2	6	248	0.00	29.773 
19:10	23.2	23.2	23.2	63	12.5	3	10	248	0.00	29.773 
19:15	23.2	23.2	23.2	63	12.5	3	7	248	0.00	29.768 
19:20	23.2	23.2	23.2	64	12.9	2	9	248	0.00	29.768 
19:25	23.2	23.2	23.2	65	13.2	2	5	248	0.00	29.768 
19:30	23.2	23.2	23.2	65	13.2	1	5	248	0.00	29.771 
19:35	23.2	23.2	23.2	65	13.2	2	6	248	0.00	29.771 
19:40	23.2	23.2	23.2	65	13.2	3	10	248	0.00	29.771 
19:45	23.3	23.3	23.3	65	13.3	2	6	248	0.00	29.764 
19:50	23.3	23.3	23.3	65	13.3	2	5	248	0.00	29.764 
19:55	23.5	23.5	23.5	65	13.5	2	6	248	0.00	29.764 
20:00	23.6	23.6	23.6	65	13.6	3	9	248	0.00	29.768 
20:05	23.8	23.8	23.8	65	13.8	2	5	248	0.00	29.768 
20:10	23.8	23.8	23.8	65	13.8	3	8	248	0.00	29.768 
20:15	23.9	23.9	23.9	64	13.5	2	6	248	0.00	29.763 
20:20	24.1	24.1	24.1	64	13.7	2	7	248	0.00	29.763 
20:25	24.1	24.1	24.1	64	13.7	2	6	248	0.00	29.763 
20:30	24.2	24.2	24.2	64	13.8	3	9	248	0.00	29.762 
20:35	24.2	24.2	24.2	64	13.8	2	7	248	0.00	29.762 
20:40	24.2	24.2	24.2	64	13.8	2	7	248	0.00	29.762 
20:45	24.4	24.4	24.4	64	14.0	2	7	248	0.00	29.766 
20:50	24.5	24.5	24.5	64	14.1	3	7	248	0.00	29.766 
20:55	24.5	24.5	24.5	64	14.1	2	7	248	0.00	29.766 
21:00	24.7	24.7	24.7	64	14.3	2	7	248	0.00	29.759 
21:05	24.8	24.8	24.8	64	14.4	2	7	248	0.00	29.759 
21:10	24.8	24.8	24.8	64	14.4	1	4	270	0.00	29.759 
21:15	25.0	25.0	25.0	64	14.6	3	6	248	0.00	29.760 
21:20	25.1	25.1	25.1	64	14.7	3	9	248	0.00	29.760 
21:25	25.1	25.1	25.1	64	14.7	2	6	248	0.00	29.760 
21:30	25.0	25.0	25.0	65	14.9	2	5	248	0.00	29.765 
21:35	25.1	25.1	25.1	65	15.0	2	9	248	0.00	29.765 
21:40	25.1	25.1	25.1	65	15.0	2	5	248	0.00	29.765 
21:45	25.1	25.1	25.1	65	15.0	2	6	248	0.00	29.764 
21:50	25.3	25.3	25.3	65	15.2	1	5	248	0.00	29.764 
21:55	25.3	25.3	25.3	65	15.2	1	8	248	0.00	29.764 
22:00	25.3	25.3	25.3	65	15.2	2	7	248	0.00	29.764 
22:05	25.3	25.3	25.3	65	15.2	1	5	248	0.00	29.764 
22:10	25.1	25.1	25.1	65	15.0	1	4	248	0.00	29.764 
22:15	25.1	25.1	25.1	66	15.4	1	4	248	0.00	29.762 
22:20	25.1	25.1	25.1	66	15.4	1	3	248	0.00	29.762 
22:25	25.1	25.1	25.1	66	15.4	1	3	248	0.00	29.762 
22:30	25.1	25.1	25.1	66	15.4	1	5	248	0.00	29.762 
22:35	25.3	25.3	25.3	66	15.6	1	5	248	0.00	29.762 
22:40	25.3	25.3	25.3	67	15.9	1	6	248	0.00	29.762 
22:45	25.3	25.3	25.3	67	15.9	1	4	248	0.00	29.763 
22:50	25.4	25.4	25.4	67	16.0	1	4	248	0.00	29.763 
22:55	25.4	25.4	25.4	67	16.0	1	4	248	0.00	29.763 
23:00	25.7	25.7	25.7	68	16.6	2	5	248	0.00	29.764 
23:05	25.8	25.8	25.8	68	16.7	1	3	248	0.00	29.764 
23:10	25.8	25.8	25.8	68	16.7	1	5	248	0.00	29.764 
23:15	25.8	25.8	25.8	68	16.7	1	4	248	0.00	29.763 
23:20	25.8	25.8	25.8	68	16.7	3	6	248	0.00	29.763 
23:25	25.8	25.8	25.8	68	16.7	2	4	248	0.00	29.763 
23:30	25.8	25.8	25.8	68	16.7	2	5	248	0.00	29.762 
23:35	25.7	25.7	25.7	68	16.6	1	4	248	0.00	29.762 
23:40	25.6	25.6	25.6	69	16.9	1	3	248	0.00	29.762 
23:45	25.4	25.4	25.4	69	16.7	1	4	248	0.00	29.762 
23:50	25.3	25.3	25.3	70	16.9	1	6	248	0.00	29.762 
23:55	25.3	25.3	25.3	70	16.9	1	4	248	0.00	29.762 

CoCoRaHS
IN-AL-39
A2 Web Hosting
Creative Commons License
GoDaddy
search engine by freefind advanced

loaded 2018-11-16 00:09:50 • last modified 2010-11-18 10:43:29
Privacy PolicyDisclaimer
• wx.awcolley.com is powered by PmWiki v.2002016 •
• all content (unless otherwise noted) © 2018 A W Colley